createdAt,value
2019-06-08T00:01:20.604Z,75.83
2019-06-08T00:03:51.764Z,75.22
2019-06-08T00:06:23.924Z,75.81
2019-06-08T00:08:55.911Z,75.93
2019-06-08T00:11:28.067Z,76.14
2019-06-08T00:14:00.164Z,76.20
2019-06-08T00:16:32.347Z,75.38
2019-06-08T00:19:04.466Z,75.25
2019-06-08T00:21:36.309Z,76.49
2019-06-08T00:24:08.066Z,75.64
2019-06-08T00:26:40.057Z,75.71
2019-06-08T00:29:12.139Z,76.48
2019-06-08T00:31:43.844Z,76.98
2019-06-08T00:34:16.553Z,76.67
2019-06-08T00:36:48.271Z,76.34
2019-06-08T00:39:20.910Z,76.41
2019-06-08T00:41:53.363Z,76.10
2019-06-08T00:44:25.747Z,76.43
2019-06-08T00:46:57.837Z,77.31
2019-06-08T00:49:29.843Z,78.07
2019-06-08T00:52:01.541Z,78.69
2019-06-08T00:54:34.383Z,78.64
2019-06-08T00:57:06.554Z,78.90
2019-06-08T00:59:38.446Z,78.87
2019-06-08T01:02:10.408Z,78.86
2019-06-08T01:04:42.218Z,79.37
2019-06-08T01:07:14.466Z,80.06
2019-06-08T01:09:46.542Z,79.59
2019-06-08T01:12:18.711Z,79.69
2019-06-08T01:14:50.466Z,78.95
2019-06-08T01:17:23.021Z,78.62
2019-06-08T01:19:54.987Z,78.96
2019-06-08T01:22:27.729Z,78.37
2019-06-08T01:24:59.516Z,78.05
2019-06-08T01:27:31.565Z,77.90
2019-06-08T01:30:03.369Z,78.00
2019-06-08T01:32:35.593Z,77.46
2019-06-08T01:35:07.675Z,77.17
2019-06-08T01:37:39.470Z,77.18
2019-06-08T01:40:11.581Z,76.48
2019-06-08T01:42:43.111Z,76.91
2019-06-08T01:45:32.434Z,77.77
2019-06-08T01:48:18.737Z,78.24
2019-06-08T01:50:39.264Z,79.17
2019-06-08T01:53:10.864Z,80.01
2019-06-08T01:55:42.566Z,80.31
2019-06-08T01:58:14.273Z,80.49
2019-06-08T02:00:45.944Z,80.75
2019-06-08T02:03:17.734Z,80.92
2019-06-08T02:05:49.768Z,80.55
2019-06-08T02:08:21.715Z,80.37
2019-06-08T02:10:53.426Z,80.31
2019-06-08T02:13:26.897Z,79.75
2019-06-08T02:15:58.709Z,79.71
2019-06-08T02:18:38.876Z,79.57
2019-06-08T02:21:02.823Z,79.09
2019-06-08T02:23:35.198Z,79.00
2019-06-08T02:26:07.182Z,79.60
2019-06-08T02:28:39.905Z,79.69
2019-06-08T02:31:12.190Z,79.68
2019-06-08T02:33:44.286Z,79.79
2019-06-08T02:36:16.252Z,78.98
2019-06-08T02:38:48.064Z,78.35
2019-06-08T02:41:20.135Z,78.53
2019-06-08T02:43:52.443Z,78.45
2019-06-08T02:46:24.059Z,78.93
2019-06-08T02:49:04.202Z,78.37
2019-06-08T02:51:31.152Z,78.00
2019-06-08T02:54:05.018Z,77.88
2019-06-08T02:56:36.751Z,77.60
2019-06-08T02:59:09.539Z,77.60
2019-06-08T03:01:42.472Z,77.82
2019-06-08T03:04:16.873Z,78.60
2019-06-08T03:06:50.627Z,80.02
2019-06-08T03:09:24.826Z,79.96
2019-06-08T03:11:57.513Z,80.39
2019-06-08T03:14:30.987Z,80.43
2019-06-08T03:17:02.860Z,80.95
2019-06-08T03:19:35.642Z,81.33
2019-06-08T03:22:10.787Z,81.66
2019-06-08T03:24:41.616Z,81.79
2019-06-08T03:27:13.649Z,81.02
2019-06-08T03:29:45.604Z,80.65
2019-06-08T03:32:17.376Z,80.13
2019-06-08T03:34:55.726Z,80.00
2019-06-08T03:37:22.650Z,79.95
2019-06-08T03:39:54.310Z,79.65
2019-06-08T03:42:25.752Z,79.36
2019-06-08T03:44:57.504Z,79.01
2019-06-08T03:47:29.532Z,78.62
2019-06-08T03:50:04.782Z,78.52
2019-06-08T03:52:37.784Z,78.36
2019-06-08T03:55:10.416Z,78.26
2019-06-08T03:57:42.218Z,78.13
2019-06-08T04:00:14.844Z,78.15
2019-06-08T04:02:46.877Z,78.93
2019-06-08T04:05:18.533Z,79.84
2019-06-08T04:07:50.579Z,80.27
2019-06-08T04:10:22.696Z,80.06
2019-06-08T04:12:54.368Z,79.41
2019-06-08T04:15:26.253Z,78.97
2019-06-08T04:17:57.946Z,78.66
2019-06-08T04:20:29.740Z,78.23
2019-06-08T04:23:01.707Z,77.50
2019-06-08T04:25:33.466Z,76.13
2019-06-08T04:28:05.243Z,76.27
2019-06-08T04:30:38.658Z,75.55
2019-06-08T04:33:10.798Z,75.16
2019-06-08T04:35:44.451Z,74.45
2019-06-08T04:38:16.016Z,74.19
2019-06-08T04:40:48.480Z,73.79
2019-06-08T04:43:20.933Z,73.29
2019-06-08T04:45:52.458Z,73.23
2019-06-08T04:48:24.389Z,72.44
2019-06-08T04:50:56.229Z,72.09
2019-06-08T04:53:27.947Z,71.90
2019-06-08T04:55:59.473Z,71.71
2019-06-08T04:58:32.350Z,71.75
2019-06-08T05:01:05.242Z,71.06
2019-06-08T05:03:36.948Z,70.99
2019-06-08T05:06:08.385Z,70.69
2019-06-08T05:08:40.948Z,70.42
2019-06-08T05:11:12.896Z,70.29
2019-06-08T05:13:45.375Z,69.61
2019-06-08T05:16:16.872Z,69.23
2019-06-08T05:18:49.685Z,68.80
2019-06-08T05:21:20.536Z,68.24
2019-06-08T05:23:58.607Z,67.72
2019-06-08T05:26:26.097Z,66.93
2019-06-08T05:28:57.714Z,66.26
2019-06-08T05:31:29.444Z,66.94
2019-06-08T05:34:01.044Z,65.98
2019-06-08T05:36:32.531Z,65.29
2019-06-08T05:39:04.857Z,65.98
2019-06-08T05:41:36.556Z,66.17
2019-06-08T05:44:08.302Z,65.43
2019-06-08T05:46:40.087Z,64.06
2019-06-08T05:49:11.915Z,64.71
2019-06-08T05:51:43.812Z,64.02
2019-06-08T05:54:15.750Z,62.49
2019-06-08T05:56:47.996Z,62.10
2019-06-08T05:59:19.786Z,61.99
2019-06-08T06:01:51.795Z,63.24
2019-06-08T06:04:23.650Z,61.47
2019-06-08T06:06:55.506Z,59.28
2019-06-08T06:09:27.357Z,60.30
2019-06-08T06:11:59.116Z,59.21
2019-06-08T06:14:30.908Z,59.14
2019-06-08T06:17:02.718Z,59.49
2019-06-08T06:19:34.512Z,57.42
2019-06-08T06:22:06.468Z,58.68
2019-06-08T06:24:38.278Z,57.98
2019-06-08T06:27:09.827Z,57.42
2019-06-08T06:29:41.662Z,56.98
2019-06-08T06:32:13.743Z,59.34
2019-06-08T06:34:45.824Z,59.16
2019-06-08T06:37:17.468Z,58.71
2019-06-08T06:39:50.071Z,59.56
2019-06-08T06:42:24.719Z,57.74
2019-06-08T06:44:55.944Z,58.56
2019-06-08T06:47:28.059Z,56.01
2019-06-08T06:49:59.918Z,55.43
2019-06-08T06:52:31.959Z,55.70
2019-06-08T06:55:03.428Z,56.49
2019-06-08T06:57:36.719Z,54.36
2019-06-08T07:00:10.457Z,56.73
2019-06-08T07:02:43.539Z,56.91
2019-06-08T07:05:15.861Z,55.82
2019-06-08T07:07:48.165Z,55.19
2019-06-08T07:10:19.938Z,54.67
2019-06-08T07:12:52.810Z,54.98
2019-06-08T07:15:30.977Z,55.12
2019-06-08T07:18:02.714Z,54.93
2019-06-08T07:20:34.569Z,55.48
2019-06-08T07:23:06.820Z,54.23
2019-06-08T07:25:38.495Z,53.64
2019-06-08T07:28:10.125Z,52.76
2019-06-08T07:30:41.765Z,54.12
2019-06-08T07:33:13.704Z,53.66
2019-06-08T07:35:45.258Z,52.13
2019-06-08T07:38:17.080Z,51.88
2019-06-08T07:40:49.954Z,51.88
2019-06-08T07:43:21.575Z,51.01
2019-06-08T07:45:54.180Z,51.01
2019-06-08T07:48:24.949Z,52.51
2019-06-08T07:50:56.620Z,49.70
2019-06-08T07:53:28.377Z,50.57
2019-06-08T07:55:59.883Z,47.81
2019-06-08T07:58:31.728Z,47.81
2019-06-08T08:01:07.972Z,48.57
2019-06-08T08:03:36.805Z,49.19
2019-06-08T08:06:08.662Z,50.14
2019-06-08T08:08:40.750Z,48.38
2019-06-08T08:11:12.321Z,47.50
2019-06-08T08:13:44.306Z,47.89
2019-06-08T08:16:15.923Z,49.82
2019-06-08T08:18:48.962Z,48.45
2019-06-08T08:21:25.609Z,48.30
2019-06-08T08:23:55.933Z,44.19
2019-06-08T08:26:30.460Z,46.35
2019-06-08T08:29:03.187Z,42.60
2019-06-08T08:31:37.287Z,42.97
2019-06-08T08:34:09.104Z,41.88
2019-06-08T08:36:39.837Z,41.79
2019-06-08T08:39:11.432Z,40.58
2019-06-08T08:41:44.406Z,41.04
2019-06-08T08:44:17.751Z,39.04
2019-06-08T08:46:51.412Z,39.26
2019-06-08T08:49:23.238Z,38.49
2019-06-08T08:51:56.111Z,40.69
2019-06-08T08:54:29.778Z,37.97
2019-06-08T08:57:05.104Z,38.24
2019-06-08T08:59:37.990Z,37.14
2019-06-08T09:02:11.449Z,36.94
2019-06-08T09:04:42.755Z,38.38
2019-06-08T09:07:14.845Z,36.02
2019-06-08T09:09:48.245Z,38.63
2019-06-08T09:12:19.723Z,37.83
2019-06-08T09:14:51.879Z,37.77
2019-06-08T09:17:24.828Z,36.57
2019-06-08T09:19:59.754Z,37.73
2019-06-08T09:22:31.478Z,35.48
2019-06-08T09:25:04.512Z,35.62
2019-06-08T09:27:38.269Z,35.71
2019-06-08T09:30:10.492Z,38.04
2019-06-08T09:32:42.563Z,35.31
2019-06-08T09:35:14.574Z,36.35
2019-06-08T09:37:48.409Z,37.02
2019-06-08T09:40:20.048Z,34.76
2019-06-08T09:42:57.249Z,34.38
2019-06-08T09:45:24.959Z,35.73
2019-06-08T09:47:59.648Z,34.29
2019-06-08T09:50:29.703Z,35.31
2019-06-08T09:53:14.901Z,35.08
2019-06-08T09:55:34.712Z,37.41
2019-06-08T09:58:09.472Z,32.86
2019-06-08T10:00:40.041Z,35.05
2019-06-08T10:03:12.036Z,35.08
2019-06-08T10:05:43.815Z,34.38
2019-06-08T10:08:20.229Z,33.89
2019-06-08T10:10:49.012Z,33.13
2019-06-08T10:13:21.753Z,33.44
2019-06-08T10:15:54.921Z,33.97
2019-06-08T10:18:28.485Z,32.44
2019-06-08T10:21:02.845Z,34.08
2019-06-08T10:23:34.887Z,33.01
2019-06-08T10:26:06.905Z,32.15
2019-06-08T10:28:39.151Z,33.24
2019-06-08T10:31:10.826Z,32.95
2019-06-08T10:33:42.317Z,32.42
2019-06-08T10:36:14.241Z,33.19
2019-06-08T10:38:48.010Z,33.94
2019-06-08T10:41:21.808Z,32.08
2019-06-08T10:43:52.988Z,32.12
2019-06-08T10:46:24.637Z,35.05
2019-06-08T10:48:57.393Z,32.35
2019-06-08T10:51:29.524Z,33.72
2019-06-08T10:54:02.089Z,30.74
2019-06-08T10:56:34.017Z,33.37
2019-06-08T10:59:09.972Z,32.92
2019-06-08T11:01:39.559Z,32.24
2019-06-08T11:04:11.295Z,32.69
2019-06-08T11:06:44.049Z,32.13
2019-06-08T11:09:18.719Z,30.90
2019-06-08T11:11:49.446Z,32.31
2019-06-08T11:14:22.756Z,32.11
2019-06-08T11:16:54.832Z,31.96
2019-06-08T11:19:26.795Z,32.95
2019-06-08T11:22:02.695Z,31.12
2019-06-08T11:24:32.211Z,32.26
2019-06-08T11:27:05.579Z,32.81
2019-06-08T11:29:38.323Z,34.23
2019-06-08T11:32:12.324Z,32.50
2019-06-08T11:34:43.596Z,31.70
2019-06-08T11:37:20.645Z,32.49
2019-06-08T11:39:49.168Z,32.39
2019-06-08T11:42:20.020Z,32.76
2019-06-08T11:44:51.607Z,32.21
2019-06-08T11:47:23.658Z,32.78
2019-06-08T11:49:57.543Z,30.50
2019-06-08T11:52:28.891Z,31.02
2019-06-08T11:55:02.596Z,30.23
2019-06-08T11:57:37.339Z,32.62
2019-06-08T12:00:23.486Z,29.62
2019-06-08T12:02:43.358Z,30.30
2019-06-08T12:05:15.151Z,31.48
2019-06-08T12:07:48.050Z,29.69
2019-06-08T12:10:19.859Z,29.71
2019-06-08T12:12:51.576Z,29.85
2019-06-08T12:15:23.449Z,30.43
2019-06-08T12:17:55.165Z,30.83
2019-06-08T12:20:28.009Z,28.40
2019-06-08T12:22:59.740Z,28.53
2019-06-08T12:25:31.442Z,28.94
2019-06-08T12:28:02.928Z,27.73
2019-06-08T12:30:34.981Z,28.60
2019-06-08T12:33:09.377Z,29.17
2019-06-08T12:35:40.261Z,29.37
2019-06-08T12:38:13.017Z,28.28
2019-06-08T12:40:45.068Z,28.09
2019-06-08T12:43:19.846Z,27.74
2019-06-08T12:45:50.779Z,26.67
2019-06-08T12:48:25.446Z,28.03
2019-06-08T12:50:55.818Z,28.67
2019-06-08T12:53:28.284Z,28.51
2019-06-08T12:55:59.921Z,28.31
2019-06-08T12:58:31.780Z,27.78
2019-06-08T13:01:03.986Z,26.93
2019-06-08T13:03:37.712Z,26.93
2019-06-08T13:06:11.226Z,28.62
2019-06-08T13:08:42.558Z,27.17
2019-06-08T13:11:14.359Z,26.80
2019-06-08T13:13:46.113Z,26.22
2019-06-08T13:16:23.754Z,27.39
2019-06-08T13:18:51.338Z,26.02
2019-06-08T13:21:34.176Z,25.71
2019-06-08T13:23:58.114Z,25.43
2019-06-08T13:26:31.115Z,26.21
2019-06-08T13:29:03.195Z,25.33
2019-06-08T13:31:34.920Z,26.06
2019-06-08T13:34:08.220Z,26.69
2019-06-08T13:36:42.246Z,26.72
2019-06-08T14:56:05.758Z,32.40
2019-06-08T14:58:34.663Z,32.23
2019-06-08T15:01:07.932Z,32.31
2019-06-08T15:03:40.759Z,32.78
2019-06-08T15:06:12.913Z,33.43
2019-06-08T15:08:45.221Z,32.66
2019-06-08T15:11:17.892Z,34.11
2019-06-08T15:13:50.944Z,34.42
2019-06-08T15:16:23.657Z,34.26
2019-06-08T15:18:54.754Z,35.26
2019-06-08T15:21:30.127Z,36.46
2019-06-08T15:24:01.140Z,35.63
2019-06-08T15:26:42.635Z,35.82
2019-06-08T15:29:10.975Z,35.92
2019-06-08T15:31:43.246Z,35.36
2019-06-08T15:34:17.797Z,35.14
2019-06-08T15:36:50.000Z,36.04
2019-06-08T15:39:23.474Z,36.69
2019-06-08T15:41:59.838Z,36.66
2019-06-08T15:44:30.729Z,37.06
2019-06-08T15:47:04.132Z,37.47
2019-06-08T15:49:38.858Z,36.89
2019-06-08T15:52:10.724Z,37.83
2019-06-08T15:54:44.325Z,36.95
2019-06-08T15:57:17.838Z,37.52
2019-06-08T15:59:49.399Z,38.52
2019-06-08T16:02:21.447Z,38.52
2019-06-08T16:04:53.908Z,39.03
2019-06-08T16:07:28.596Z,37.90
2019-06-08T16:10:00.748Z,37.58
2019-06-08T16:12:33.403Z,37.93
2019-06-08T16:15:06.530Z,36.81
2019-06-08T16:17:39.098Z,37.72
2019-06-08T16:20:11.667Z,37.01
2019-06-08T16:22:43.739Z,37.32
2019-06-08T16:25:16.272Z,36.82
2019-06-08T16:27:48.579Z,37.42
2019-06-08T16:30:21.080Z,37.75
2019-06-08T16:32:53.522Z,37.62
2019-06-08T16:35:27.921Z,37.70
2019-06-08T16:37:59.522Z,37.67
2019-06-08T16:40:32.103Z,37.63
2019-06-08T16:43:05.716Z,38.07
2019-06-08T16:45:39.437Z,37.50
2019-06-08T16:48:11.384Z,38.06
2019-06-08T16:50:43.986Z,37.65
2019-06-08T16:53:16.580Z,38.59
2019-06-08T17:15:16.816Z,39.00
2019-06-08T17:17:48.391Z,39.14
2019-06-08T17:20:20.168Z,39.50
2019-06-08T17:22:52.210Z,40.35
2019-06-08T17:25:23.681Z,40.80
2019-06-08T17:27:55.372Z,41.03
2019-06-08T17:30:27.190Z,41.08
2019-06-08T17:32:59.103Z,41.85
2019-06-08T17:35:31.379Z,41.72
2019-06-08T17:38:03.543Z,41.78
2019-06-08T17:40:35.867Z,43.06
2019-06-08T17:43:07.714Z,42.46
2019-06-08T17:45:40.719Z,42.90
2019-06-08T17:48:13.009Z,42.82
2019-06-08T17:50:44.854Z,42.83
2019-06-08T17:53:16.710Z,43.15
2019-06-08T17:55:48.434Z,43.37
2019-06-08T17:58:21.692Z,44.66
2019-06-08T18:00:53.299Z,44.47
2019-06-08T18:03:25.218Z,44.30
2019-06-08T18:05:58.094Z,44.69
2019-06-08T18:08:28.587Z,45.16
2019-06-08T18:11:00.091Z,45.36
2019-06-08T18:13:31.993Z,45.60
2019-06-08T18:16:03.488Z,45.90
2019-06-08T18:18:39.156Z,46.18
2019-06-08T18:21:09.830Z,46.53
2019-06-08T18:23:42.425Z,46.84
2019-06-08T18:26:17.255Z,47.06
2019-06-08T18:28:48.812Z,47.38
2019-06-08T18:31:20.413Z,47.67
2019-06-08T18:33:52.047Z,48.06
2019-06-08T18:36:23.797Z,48.29
2019-06-08T18:38:56.060Z,48.64
2019-06-08T18:41:28.490Z,48.69
2019-06-08T18:44:00.262Z,49.08
2019-06-08T18:46:32.666Z,49.49
2019-06-08T18:49:04.563Z,49.50
2019-06-08T18:51:38.184Z,49.77
2019-06-08T18:54:14.666Z,50.17
2019-06-08T18:56:45.080Z,50.51
2019-06-08T18:59:18.347Z,50.73
2019-06-08T19:01:50.118Z,50.80
2019-06-08T19:04:22.032Z,51.03
2019-06-08T19:06:54.561Z,51.54
2019-06-08T19:09:26.791Z,51.75
2019-06-08T19:11:58.519Z,52.68
2019-06-08T19:14:30.325Z,53.24
2019-06-08T19:17:01.914Z,53.62
2019-06-08T19:19:33.499Z,54.46
2019-06-08T19:22:05.334Z,55.15
2019-06-08T19:24:40.803Z,55.39
2019-06-08T19:27:11.769Z,55.45
2019-06-08T19:29:44.193Z,55.75
2019-06-08T19:32:17.623Z,56.46
2019-06-08T19:34:53.969Z,56.51
2019-06-08T19:37:23.161Z,56.75
2019-06-08T19:39:57.565Z,57.78
2019-06-08T19:42:40.008Z,58.63
2019-06-08T19:45:05.487Z,59.99
2019-06-08T19:47:36.538Z,60.26
2019-06-08T19:50:08.656Z,60.85
2019-06-08T19:52:43.724Z,61.47
2019-06-08T19:55:13.774Z,62.79
2019-06-08T19:57:46.373Z,64.17
2019-06-08T20:00:18.017Z,65.27
2019-06-08T20:02:53.273Z,65.97
2019-06-08T20:05:23.718Z,67.07
2019-06-08T20:07:57.523Z,67.80
2019-06-08T20:10:28.669Z,68.42
2019-06-08T20:13:00.782Z,68.99
2019-06-08T20:15:33.750Z,69.56
2019-06-08T20:18:05.774Z,70.15
2019-06-08T20:20:38.206Z,70.69
2019-06-08T20:23:10.176Z,71.39
2019-06-08T20:25:43.122Z,71.64
2019-06-08T20:28:13.889Z,71.90
2019-06-08T20:30:46.690Z,72.21
2019-06-08T20:33:18.664Z,72.44
2019-06-08T20:35:51.879Z,72.21
2019-06-08T20:38:35.257Z,72.01
2019-06-08T20:40:58.063Z,71.79
2019-06-08T20:43:29.969Z,71.33
2019-06-08T20:46:02.156Z,70.88
2019-06-08T20:48:33.996Z,70.32
2019-06-08T20:51:07.814Z,69.72
2019-06-08T20:53:39.282Z,69.10
2019-06-08T20:56:10.960Z,69.43
2019-06-08T20:58:43.191Z,69.53
2019-06-08T21:01:14.888Z,69.63
2019-06-08T21:03:48.548Z,69.43
2019-06-08T21:06:20.215Z,69.60
2019-06-08T21:08:53.228Z,69.32
2019-06-08T21:11:27.153Z,69.30
2019-06-08T21:13:58.726Z,69.37
2019-06-08T21:16:30.558Z,69.43
2019-06-08T21:19:02.336Z,69.24
2019-06-08T21:21:34.376Z,69.17
2019-06-08T21:24:08.997Z,69.04
2019-06-08T21:26:40.576Z,68.91
2019-06-08T21:29:12.378Z,68.66
2019-06-08T21:31:44.152Z,68.46
2019-06-08T21:34:18.116Z,68.30
2019-06-08T21:36:49.822Z,68.96
2019-06-08T21:39:22.282Z,69.46
2019-06-08T21:41:58.532Z,69.66
2019-06-08T21:44:28.124Z,69.56
2019-06-08T21:47:01.531Z,69.84
2019-06-08T21:49:33.598Z,69.77
2019-06-08T21:52:07.323Z,69.30
2019-06-08T21:54:38.850Z,68.93
2019-06-08T21:57:10.552Z,69.35
2019-06-08T21:59:42.473Z,69.59
2019-06-08T22:02:14.181Z,69.55
2019-06-08T22:04:47.780Z,69.65
2019-06-08T22:07:19.398Z,69.90
2019-06-08T22:09:52.017Z,70.55
2019-06-08T22:12:24.809Z,71.10
2019-06-08T22:14:59.002Z,71.24
2019-06-08T22:17:30.059Z,71.65
2019-06-08T22:20:01.599Z,71.72
2019-06-08T22:22:33.347Z,72.00
2019-06-08T22:25:04.946Z,71.93
2019-06-08T22:27:38.149Z,72.64
2019-06-08T22:30:18.451Z,72.75
2019-06-08T22:32:44.304Z,73.31
2019-06-08T22:35:16.462Z,73.68
2019-06-08T22:37:48.164Z,73.86
2019-06-08T22:40:19.787Z,74.00
2019-06-08T22:42:51.121Z,74.05
2019-06-08T22:45:22.901Z,73.52
2019-06-08T22:47:54.537Z,74.13
2019-06-08T22:50:27.544Z,75.19
2019-06-08T22:52:59.785Z,76.41
2019-06-08T22:55:31.861Z,77.58
2019-06-08T22:58:04.672Z,78.25
2019-06-08T23:00:51.368Z,78.73
2019-06-08T23:03:10.312Z,78.63
2019-06-08T23:05:41.974Z,78.56
2019-06-08T23:08:13.658Z,77.96
2019-06-08T23:10:45.481Z,77.60
2019-06-08T23:13:17.923Z,77.63
2019-06-08T23:15:49.822Z,77.33
2019-06-08T23:18:21.374Z,77.26
2019-06-08T23:20:58.253Z,76.94
2019-06-08T23:23:30.235Z,76.41
2019-06-08T23:26:03.715Z,76.51
2019-06-08T23:28:37.766Z,76.48
2019-06-08T23:31:21.032Z,76.03
2019-06-08T23:33:44.511Z,75.75
2019-06-08T23:36:46.704Z,75.11
2019-06-08T23:38:49.954Z,75.39
2019-06-08T23:41:21.925Z,75.20
2019-06-08T23:43:53.618Z,75.71
2019-06-08T23:46:27.365Z,75.60
2019-06-08T23:49:01.871Z,75.29
2019-06-08T23:51:32.981Z,74.98
2019-06-08T23:54:06.428Z,75.20
2019-06-08T23:56:38.345Z,75.58
2019-06-08T23:59:10.371Z,75.59
